sensor_id;sensor_type;location;lat;lon;timestamp;P1;durP1;ratioP1;P2;durP2;ratioP2
10586;SDS011;5341;47.606;7.576;2022-09-29T00:00:46;3.33;;;2.55;;
10586;SDS011;5341;47.606;7.576;2022-09-29T00:03:15;4.50;;;2.30;;
10586;SDS011;5341;47.606;7.576;2022-09-29T00:05:46;3.30;;;2.40;;
10586;SDS011;5341;47.606;7.576;2022-09-29T00:08:15;3.35;;;2.33;;
10586;SDS011;5341;47.606;7.576;2022-09-29T00:10:44;4.93;;;3.15;;
10586;SDS011;5341;47.606;7.576;2022-09-29T00:13:13;3.35;;;2.72;;
10586;SDS011;5341;47.606;7.576;2022-09-29T00:15:41;3.67;;;2.70;;
10586;SDS011;5341;47.606;7.576;2022-09-29T00:18:09;4.15;;;2.40;;
10586;SDS011;5341;47.606;7.576;2022-09-29T00:20:37;3.25;;;2.50;;
10586;SDS011;5341;47.606;7.576;2022-09-29T00:23:04;3.58;;;2.50;;
10586;SDS011;5341;47.606;7.576;2022-09-29T00:25:32;4.72;;;2.42;;
10586;SDS011;5341;47.606;7.576;2022-09-29T00:28:01;4.50;;;2.50;;
10586;SDS011;5341;47.606;7.576;2022-09-29T00:30:30;4.45;;;2.92;;
10586;SDS011;5341;47.606;7.576;2022-09-29T00:32:58;3.47;;;2.20;;
10586;SDS011;5341;47.606;7.576;2022-09-29T00:35:25;4.72;;;2.50;;
10586;SDS011;5341;47.606;7.576;2022-09-29T00:37:53;3.25;;;2.63;;
10586;SDS011;5341;47.606;7.576;2022-09-29T00:40:20;3.53;;;2.47;;
10586;SDS011;5341;47.606;7.576;2022-09-29T00:42:48;3.28;;;2.45;;
10586;SDS011;5341;47.606;7.576;2022-09-29T00:45:16;2.85;;;2.45;;
10586;SDS011;5341;47.606;7.576;2022-09-29T00:47:49;3.65;;;2.85;;
10586;SDS011;5341;47.606;7.576;2022-09-29T00:50:22;4.25;;;2.92;;
10586;SDS011;5341;47.606;7.576;2022-09-29T00:52:57;4.18;;;2.70;;
10586;SDS011;5341;47.606;7.576;2022-09-29T00:55:33;3.85;;;2.80;;
10586;SDS011;5341;47.606;7.576;2022-09-29T00:58:05;3.47;;;2.55;;
10586;SDS011;5341;47.606;7.576;2022-09-29T01:00:36;4.55;;;2.63;;
10586;SDS011;5341;47.606;7.576;2022-09-29T01:03:06;3.33;;;2.85;;
10586;SDS011;5341;47.606;7.576;2022-09-29T01:05:37;4.22;;;2.97;;
10586;SDS011;5341;47.606;7.576;2022-09-29T01:08:10;3.40;;;2.70;;
10586;SDS011;5341;47.606;7.576;2022-09-29T01:10:42;3.15;;;2.85;;
10586;SDS011;5341;47.606;7.576;2022-09-29T01:13:13;3.22;;;2.60;;
10586;SDS011;5341;47.606;7.576;2022-09-29T01:15:41;4.72;;;3.03;;
10586;SDS011;5341;47.606;7.576;2022-09-29T01:18:10;3.50;;;2.47;;
10586;SDS011;5341;47.606;7.576;2022-09-29T01:20:39;3.05;;;2.60;;
10586;SDS011;5341;47.606;7.576;2022-09-29T01:26:36;4.47;;;2.75;;
10586;SDS011;5341;47.606;7.576;2022-09-29T01:29:41;3.30;;;2.67;;
10586;SDS011;5341;47.606;7.576;2022-09-29T01:32:25;3.95;;;2.33;;
10586;SDS011;5341;47.606;7.576;2022-09-29T01:35:00;4.25;;;2.78;;
10586;SDS011;5341;47.606;7.576;2022-09-29T01:37:40;3.85;;;2.60;;
10586;SDS011;5341;47.606;7.576;2022-09-29T01:40:15;4.10;;;2.65;;
10586;SDS011;5341;47.606;7.576;2022-09-29T01:42:49;3.95;;;2.58;;
10586;SDS011;5341;47.606;7.576;2022-09-29T01:45:22;3.75;;;2.53;;
10586;SDS011;5341;47.606;7.576;2022-09-29T01:47:57;2.70;;;2.38;;
10586;SDS011;5341;47.606;7.576;2022-09-29T01:50:31;3.97;;;2.28;;
10586;SDS011;5341;47.606;7.576;2022-09-29T01:53:03;3.25;;;2.63;;
10586;SDS011;5341;47.606;7.576;2022-09-29T01:55:34;2.80;;;2.47;;
10586;SDS011;5341;47.606;7.576;2022-09-29T01:58:09;3.45;;;2.45;;
10586;SDS011;5341;47.606;7.576;2022-09-29T02:00:44;3.70;;;2.22;;
10586;SDS011;5341;47.606;7.576;2022-09-29T02:03:17;2.60;;;2.30;;
10586;SDS011;5341;47.606;7.576;2022-09-29T02:05:51;2.70;;;2.10;;
10586;SDS011;5341;47.606;7.576;2022-09-29T02:08:23;3.08;;;2.30;;
10586;SDS011;5341;47.606;7.576;2022-09-29T02:10:58;3.20;;;2.05;;
10586;SDS011;5341;47.606;7.576;2022-09-29T02:13:32;3.17;;;2.10;;
10586;SDS011;5341;47.606;7.576;2022-09-29T02:16:05;2.30;;;1.98;;
10586;SDS011;5341;47.606;7.576;2022-09-29T02:18:44;3.90;;;2.17;;
10586;SDS011;5341;47.606;7.576;2022-09-29T02:21:20;2.47;;;1.80;;
10586;SDS011;5341;47.606;7.576;2022-09-29T02:23:50;3.05;;;2.00;;
10586;SDS011;5341;47.606;7.576;2022-09-29T02:26:18;2.63;;;1.88;;
10586;SDS011;5341;47.606;7.576;2022-09-29T02:28:47;3.67;;;1.90;;
10586;SDS011;5341;47.606;7.576;2022-09-29T02:31:17;2.88;;;1.90;;
10586;SDS011;5341;47.606;7.576;2022-09-29T02:33:50;2.30;;;1.80;;
10586;SDS011;5341;47.606;7.576;2022-09-29T02:36:23;2.85;;;1.85;;
10586;SDS011;5341;47.606;7.576;2022-09-29T02:39:00;3.50;;;1.98;;
10586;SDS011;5341;47.606;7.576;2022-09-29T02:41:33;2.42;;;1.73;;
10586;SDS011;5341;47.606;7.576;2022-09-29T02:44:16;4.07;;;1.83;;
10586;SDS011;5341;47.606;7.576;2022-09-29T02:46:58;2.00;;;1.80;;
10586;SDS011;5341;47.606;7.576;2022-09-29T02:49:53;2.85;;;1.90;;
10586;SDS011;5341;47.606;7.576;2022-09-29T02:52:42;2.85;;;1.70;;
10586;SDS011;5341;47.606;7.576;2022-09-29T02:55:19;4.05;;;1.70;;
10586;SDS011;5341;47.606;7.576;2022-09-29T02:58:01;3.22;;;2.20;;
10586;SDS011;5341;47.606;7.576;2022-09-29T03:00:34;2.90;;;1.92;;
10586;SDS011;5341;47.606;7.576;2022-09-29T03:03:01;2.17;;;1.80;;
10586;SDS011;5341;47.606;7.576;2022-09-29T03:05:31;2.33;;;1.67;;
10586;SDS011;5341;47.606;7.576;2022-09-29T03:07:59;2.42;;;1.63;;
10586;SDS011;5341;47.606;7.576;2022-09-29T03:10:28;1.85;;;1.65;;
10586;SDS011;5341;47.606;7.576;2022-09-29T03:12:56;2.50;;;1.60;;
10586;SDS011;5341;47.606;7.576;2022-09-29T03:15:23;2.97;;;1.98;;
10586;SDS011;5341;47.606;7.576;2022-09-29T03:17:53;2.95;;;1.75;;
10586;SDS011;5341;47.606;7.576;2022-09-29T03:20:22;2.58;;;1.58;;
10586;SDS011;5341;47.606;7.576;2022-09-29T03:22:53;2.38;;;1.50;;
10586;SDS011;5341;47.606;7.576;2022-09-29T03:25:22;2.45;;;1.60;;
10586;SDS011;5341;47.606;7.576;2022-09-29T03:27:50;2.20;;;1.70;;
10586;SDS011;5341;47.606;7.576;2022-09-29T03:30:19;3.05;;;1.67;;
10586;SDS011;5341;47.606;7.576;2022-09-29T03:32:48;2.40;;;1.92;;
10586;SDS011;5341;47.606;7.576;2022-09-29T03:35:18;3.08;;;1.90;;
10586;SDS011;5341;47.606;7.576;2022-09-29T03:37:50;3.58;;;2.00;;
10586;SDS011;5341;47.606;7.576;2022-09-29T03:40:23;2.35;;;1.58;;
10586;SDS011;5341;47.606;7.576;2022-09-29T03:42:50;2.42;;;1.88;;
10586;SDS011;5341;47.606;7.576;2022-09-29T03:45:18;2.60;;;1.80;;
10586;SDS011;5341;47.606;7.576;2022-09-29T03:47:46;3.05;;;1.85;;
10586;SDS011;5341;47.606;7.576;2022-09-29T03:50:13;2.58;;;1.75;;
10586;SDS011;5341;47.606;7.576;2022-09-29T03:52:41;2.45;;;1.67;;
10586;SDS011;5341;47.606;7.576;2022-09-29T03:55:13;1.88;;;1.67;;
10586;SDS011;5341;47.606;7.576;2022-09-29T03:57:44;4.72;;;1.77;;
10586;SDS011;5341;47.606;7.576;2022-09-29T04:00:13;2.58;;;1.90;;
10586;SDS011;5341;47.606;7.576;2022-09-29T04:02:41;3.38;;;1.77;;
10586;SDS011;5341;47.606;7.576;2022-09-29T04:05:10;2.10;;;1.80;;
10586;SDS011;5341;47.606;7.576;2022-09-29T04:07:38;2.83;;;1.75;;
10586;SDS011;5341;47.606;7.576;2022-09-29T04:10:06;1.67;;;1.52;;
10586;SDS011;5341;47.606;7.576;2022-09-29T04:12:38;2.33;;;1.70;;
10586;SDS011;5341;47.606;7.576;2022-09-29T04:15:06;1.88;;;1.67;;
10586;SDS011;5341;47.606;7.576;2022-09-29T04:17:35;1.98;;;1.67;;
10586;SDS011;5341;47.606;7.576;2022-09-29T04:20:03;2.15;;;1.85;;
10586;SDS011;5341;47.606;7.576;2022-09-29T04:22:32;2.10;;;1.65;;
10586;SDS011;5341;47.606;7.576;2022-09-29T04:25:01;2.15;;;1.70;;
10586;SDS011;5341;47.606;7.576;2022-09-29T04:27:30;1.90;;;1.70;;
10586;SDS011;5341;47.606;7.576;2022-09-29T04:30:01;1.77;;;1.52;;
10586;SDS011;5341;47.606;7.576;2022-09-29T04:32:32;2.58;;;1.63;;
10586;SDS011;5341;47.606;7.576;2022-09-29T04:35:00;3.47;;;1.85;;
10586;SDS011;5341;47.606;7.576;2022-09-29T04:37:28;1.60;;;1.50;;
10586;SDS011;5341;47.606;7.576;2022-09-29T04:39:57;4.05;;;1.90;;
10586;SDS011;5341;47.606;7.576;2022-09-29T04:42:27;2.58;;;1.77;;
10586;SDS011;5341;47.606;7.576;2022-09-29T04:44:55;2.85;;;1.90;;
10586;SDS011;5341;47.606;7.576;2022-09-29T04:47:26;2.30;;;1.70;;
10586;SDS011;5341;47.606;7.576;2022-09-29T04:49:55;3.72;;;2.00;;
10586;SDS011;5341;47.606;7.576;2022-09-29T04:52:23;2.20;;;2.00;;
10586;SDS011;5341;47.606;7.576;2022-09-29T04:54:51;2.33;;;2.08;;
10586;SDS011;5341;47.606;7.576;2022-09-29T04:57:18;2.13;;;1.92;;
10586;SDS011;5341;47.606;7.576;2022-09-29T04:59:49;2.63;;;2.17;;
10586;SDS011;5341;47.606;7.576;2022-09-29T05:02:18;3.17;;;2.30;;
10586;SDS011;5341;47.606;7.576;2022-09-29T05:04:53;2.55;;;2.20;;
10586;SDS011;5341;47.606;7.576;2022-09-29T05:07:21;2.60;;;2.25;;
10586;SDS011;5341;47.606;7.576;2022-09-29T05:09:49;2.90;;;2.40;;
10586;SDS011;5341;47.606;7.576;2022-09-29T05:12:18;2.65;;;2.45;;
10586;SDS011;5341;47.606;7.576;2022-09-29T05:14:45;2.72;;;2.33;;
10586;SDS011;5341;47.606;7.576;2022-09-29T05:17:13;3.05;;;2.20;;
10586;SDS011;5341;47.606;7.576;2022-09-29T05:19:40;2.88;;;2.40;;
10586;SDS011;5341;47.606;7.576;2022-09-29T05:22:10;3.05;;;2.30;;
10586;SDS011;5341;47.606;7.576;2022-09-29T05:24:38;3.58;;;2.97;;
10586;SDS011;5341;47.606;7.576;2022-09-29T05:27:07;4.68;;;3.13;;
10586;SDS011;5341;47.606;7.576;2022-09-29T05:29:36;5.15;;;3.40;;
10586;SDS011;5341;47.606;7.576;2022-09-29T05:32:04;4.85;;;3.65;;
10586;SDS011;5341;47.606;7.576;2022-09-29T05:34:32;3.85;;;3.10;;
10586;SDS011;5341;47.606;7.576;2022-09-29T05:37:12;4.93;;;3.80;;
10586;SDS011;5341;47.606;7.576;2022-09-29T05:39:48;5.32;;;3.70;;
10586;SDS011;5341;47.606;7.576;2022-09-29T05:42:16;5.10;;;3.83;;
10586;SDS011;5341;47.606;7.576;2022-09-29T05:44:44;5.38;;;3.83;;
10586;SDS011;5341;47.606;7.576;2022-09-29T05:47:12;3.95;;;3.35;;
10586;SDS011;5341;47.606;7.576;2022-09-29T05:49:43;4.18;;;3.40;;
10586;SDS011;5341;47.606;7.576;2022-09-29T05:52:12;4.35;;;3.55;;
10586;SDS011;5341;47.606;7.576;2022-09-29T05:54:39;4.45;;;3.47;;
10586;SDS011;5341;47.606;7.576;2022-09-29T05:57:07;5.57;;;3.55;;
10586;SDS011;5341;47.606;7.576;2022-09-29T05:59:35;7.22;;;3.40;;
10586;SDS011;5341;47.606;7.576;2022-09-29T06:02:03;5.47;;;3.83;;
10586;SDS011;5341;47.606;7.576;2022-09-29T06:04:30;4.20;;;3.80;;
10586;SDS011;5341;47.606;7.576;2022-09-29T06:06:58;6.53;;;3.35;;
10586;SDS011;5341;47.606;7.576;2022-09-29T06:09:27;6.65;;;3.25;;
10586;SDS011;5341;47.606;7.576;2022-09-29T06:11:55;4.47;;;3.22;;
10586;SDS011;5341;47.606;7.576;2022-09-29T06:14:24;4.95;;;3.03;;
10586;SDS011;5341;47.606;7.576;2022-09-29T06:16:53;3.50;;;3.10;;
10586;SDS011;5341;47.606;7.576;2022-09-29T06:19:21;4.13;;;3.20;;
10586;SDS011;5341;47.606;7.576;2022-09-29T06:21:49;4.63;;;3.50;;
10586;SDS011;5341;47.606;7.576;2022-09-29T06:24:16;3.97;;;3.20;;
10586;SDS011;5341;47.606;7.576;2022-09-29T06:26:46;5.15;;;3.40;;
10586;SDS011;5341;47.606;7.576;2022-09-29T06:29:13;4.13;;;3.35;;
10586;SDS011;5341;47.606;7.576;2022-09-29T06:31:41;3.10;;;2.78;;
10586;SDS011;5341;47.606;7.576;2022-09-29T06:34:08;3.88;;;3.47;;
10586;SDS011;5341;47.606;7.576;2022-09-29T06:36:37;3.63;;;2.90;;
10586;SDS011;5341;47.606;7.576;2022-09-29T06:39:25;3.90;;;3.50;;
10586;SDS011;5341;47.606;7.576;2022-09-29T06:41:55;3.88;;;3.30;;
10586;SDS011;5341;47.606;7.576;2022-09-29T06:44:23;3.70;;;3.05;;
10586;SDS011;5341;47.606;7.576;2022-09-29T06:46:51;5.07;;;3.40;;
10586;SDS011;5341;47.606;7.576;2022-09-29T06:49:20;3.97;;;3.10;;
10586;SDS011;5341;47.606;7.576;2022-09-29T06:51:49;3.25;;;2.90;;
10586;SDS011;5341;47.606;7.576;2022-09-29T06:54:19;3.40;;;3.00;;
10586;SDS011;5341;47.606;7.576;2022-09-29T06:56:49;3.30;;;3.00;;
10586;SDS011;5341;47.606;7.576;2022-09-29T06:59:21;3.80;;;3.25;;
10586;SDS011;5341;47.606;7.576;2022-09-29T07:01:49;3.92;;;3.58;;
10586;SDS011;5341;47.606;7.576;2022-09-29T07:04:19;4.55;;;3.55;;
10586;SDS011;5341;47.606;7.576;2022-09-29T07:06:47;4.78;;;3.25;;
10586;SDS011;5341;47.606;7.576;2022-09-29T07:09:15;4.60;;;3.88;;
10586;SDS011;5341;47.606;7.576;2022-09-29T07:11:44;4.13;;;3.60;;
10586;SDS011;5341;47.606;7.576;2022-09-29T07:14:16;3.67;;;3.25;;
10586;SDS011;5341;47.606;7.576;2022-09-29T07:16:46;4.22;;;3.70;;
10586;SDS011;5341;47.606;7.576;2022-09-29T07:19:14;5.07;;;3.47;;
10586;SDS011;5341;47.606;7.576;2022-09-29T07:21:42;3.75;;;3.22;;
10586;SDS011;5341;47.606;7.576;2022-09-29T07:24:10;4.60;;;3.50;;
10586;SDS011;5341;47.606;7.576;2022-09-29T07:26:38;4.97;;;3.47;;
10586;SDS011;5341;47.606;7.576;2022-09-29T07:29:06;5.00;;;3.25;;
10586;SDS011;5341;47.606;7.576;2022-09-29T07:31:34;3.58;;;3.28;;
10586;SDS011;5341;47.606;7.576;2022-09-29T07:34:03;3.78;;;3.10;;
10586;SDS011;5341;47.606;7.576;2022-09-29T07:36:31;4.32;;;3.92;;
10586;SDS011;5341;47.606;7.576;2022-09-29T07:39:04;5.15;;;3.80;;
10586;SDS011;5341;47.606;7.576;2022-09-29T07:41:33;4.10;;;3.47;;
10586;SDS011;5341;47.606;7.576;2022-09-29T07:44:01;4.50;;;4.10;;
10586;SDS011;5341;47.606;7.576;2022-09-29T07:46:29;5.35;;;4.85;;
10586;SDS011;5341;47.606;7.576;2022-09-29T07:48:57;5.90;;;5.13;;
10586;SDS011;5341;47.606;7.576;2022-09-29T07:51:26;5.72;;;5.10;;
10586;SDS011;5341;47.606;7.576;2022-09-29T07:53:54;5.85;;;5.25;;
10586;SDS011;5341;47.606;7.576;2022-09-29T07:56:22;5.18;;;4.68;;
10586;SDS011;5341;47.606;7.576;2022-09-29T07:58:50;6.13;;;4.50;;
10586;SDS011;5341;47.606;7.576;2022-09-29T08:01:18;5.55;;;4.95;;
10586;SDS011;5341;47.606;7.576;2022-09-29T08:03:48;5.90;;;4.78;;
10586;SDS011;5341;47.606;7.576;2022-09-29T08:06:17;5.05;;;4.55;;
10586;SDS011;5341;47.606;7.576;2022-09-29T08:08:47;6.22;;;4.68;;
10586;SDS011;5341;47.606;7.576;2022-09-29T08:11:16;5.20;;;4.70;;
10586;SDS011;5341;47.606;7.576;2022-09-29T08:13:45;4.88;;;4.43;;
10586;SDS011;5341;47.606;7.576;2022-09-29T08:16:13;6.90;;;4.85;;
10586;SDS011;5341;47.606;7.576;2022-09-29T08:18:41;5.88;;;4.63;;
10586;SDS011;5341;47.606;7.576;2022-09-29T08:21:09;4.68;;;4.28;;
10586;SDS011;5341;47.606;7.576;2022-09-29T08:23:39;5.22;;;4.15;;
10586;SDS011;5341;47.606;7.576;2022-09-29T08:26:10;4.05;;;3.60;;
10586;SDS011;5341;47.606;7.576;2022-09-29T08:28:40;4.47;;;4.07;;
10586;SDS011;5341;47.606;7.576;2022-09-29T08:31:11;5.70;;;3.95;;
10586;SDS011;5341;47.606;7.576;2022-09-29T08:33:44;4.78;;;3.72;;
10586;SDS011;5341;47.606;7.576;2022-09-29T08:36:14;4.32;;;3.75;;
10586;SDS011;5341;47.606;7.576;2022-09-29T08:38:44;5.35;;;3.67;;
10586;SDS011;5341;47.606;7.576;2022-09-29T08:41:19;3.90;;;3.50;;
10586;SDS011;5341;47.606;7.576;2022-09-29T08:43:55;4.53;;;3.53;;
10586;SDS011;5341;47.606;7.576;2022-09-29T08:46:28;4.13;;;3.33;;
10586;SDS011;5341;47.606;7.576;2022-09-29T08:49:02;4.00;;;3.42;;
10586;SDS011;5341;47.606;7.576;2022-09-29T08:51:42;4.07;;;3.20;;
10586;SDS011;5341;47.606;7.576;2022-09-29T08:54:17;4.57;;;3.10;;
10586;SDS011;5341;47.606;7.576;2022-09-29T08:56:51;4.10;;;3.63;;
10586;SDS011;5341;47.606;7.576;2022-09-29T08:59:19;3.72;;;3.22;;
10586;SDS011;5341;47.606;7.576;2022-09-29T09:01:53;3.47;;;3.10;;
10586;SDS011;5341;47.606;7.576;2022-09-29T09:04:37;4.30;;;3.00;;
10586;SDS011;5341;47.606;7.576;2022-09-29T09:07:30;3.80;;;3.08;;
10586;SDS011;5341;47.606;7.576;2022-09-29T09:10:13;3.85;;;3.17;;
10586;SDS011;5341;47.606;7.576;2022-09-29T09:15:56;3.58;;;2.92;;
10586;SDS011;5341;47.606;7.576;2022-09-29T09:18:44;3.30;;;2.85;;
10586;SDS011;5341;47.606;7.576;2022-09-29T09:21:32;3.38;;;3.08;;
10586;SDS011;5341;47.606;7.576;2022-09-29T09:24:12;4.22;;;2.85;;
10586;SDS011;5341;47.606;7.576;2022-09-29T09:26:44;2.88;;;2.65;;
10586;SDS011;5341;47.606;7.576;2022-09-29T09:29:15;3.65;;;2.60;;
10586;SDS011;5341;47.606;7.576;2022-09-29T09:31:52;3.72;;;2.30;;
10586;SDS011;5341;47.606;7.576;2022-09-29T09:34:25;3.40;;;2.50;;
10586;SDS011;5341;47.606;7.576;2022-09-29T09:36:57;2.58;;;2.17;;
10586;SDS011;5341;47.606;7.576;2022-09-29T09:39:30;2.28;;;2.08;;
10586;SDS011;5341;47.606;7.576;2022-09-29T09:42:03;3.05;;;2.30;;
10586;SDS011;5341;47.606;7.576;2022-09-29T09:44:36;2.22;;;2.03;;
10586;SDS011;5341;47.606;7.576;2022-09-29T09:47:15;3.08;;;1.95;;
10586;SDS011;5341;47.606;7.576;2022-09-29T09:49:51;3.63;;;1.80;;
10586;SDS011;5341;47.606;7.576;2022-09-29T09:52:24;2.50;;;1.98;;
10586;SDS011;5341;47.606;7.576;2022-09-29T09:54:57;2.83;;;2.03;;
10586;SDS011;5341;47.606;7.576;2022-09-29T09:57:37;1.90;;;1.70;;
10586;SDS011;5341;47.606;7.576;2022-09-29T10:00:24;2.30;;;2.00;;
10586;SDS011;5341;47.606;7.576;2022-09-29T10:03:00;2.35;;;2.00;;
10586;SDS011;5341;47.606;7.576;2022-09-29T10:05:32;2.17;;;1.90;;
10586;SDS011;5341;47.606;7.576;2022-09-29T10:08:04;2.30;;;1.80;;
10586;SDS011;5341;47.606;7.576;2022-09-29T10:10:38;2.80;;;1.67;;
10586;SDS011;5341;47.606;7.576;2022-09-29T10:13:10;3.85;;;1.92;;
10586;SDS011;5341;47.606;7.576;2022-09-29T10:15:42;3.50;;;2.50;;
10586;SDS011;5341;47.606;7.576;2022-09-29T10:18:22;2.00;;;1.80;;
10586;SDS011;5341;47.606;7.576;2022-09-29T10:20:56;2.17;;;1.95;;
10586;SDS011;5341;47.606;7.576;2022-09-29T10:23:25;2.75;;;2.17;;
10586;SDS011;5341;47.606;7.576;2022-09-29T10:25:59;3.10;;;2.30;;
10586;SDS011;5341;47.606;7.576;2022-09-29T10:28:42;2.88;;;2.22;;
10586;SDS011;5341;47.606;7.576;2022-09-29T10:31:15;3.47;;;2.35;;
10586;SDS011;5341;47.606;7.576;2022-09-29T10:33:47;2.67;;;1.88;;
10586;SDS011;5341;47.606;7.576;2022-09-29T10:36:17;2.53;;;2.00;;
10586;SDS011;5341;47.606;7.576;2022-09-29T10:38:46;2.65;;;1.98;;
10586;SDS011;5341;47.606;7.576;2022-09-29T10:41:17;3.05;;;2.03;;
10586;SDS011;5341;47.606;7.576;2022-09-29T10:43:45;2.38;;;1.70;;
10586;SDS011;5341;47.606;7.576;2022-09-29T10:46:34;2.25;;;2.05;;
10586;SDS011;5341;47.606;7.576;2022-09-29T10:49:16;1.80;;;1.65;;
10586;SDS011;5341;47.606;7.576;2022-09-29T10:51:50;2.83;;;1.85;;
10586;SDS011;5341;47.606;7.576;2022-09-29T10:54:20;2.88;;;1.95;;
10586;SDS011;5341;47.606;7.576;2022-09-29T10:56:51;2.35;;;1.75;;
10586;SDS011;5341;47.606;7.576;2022-09-29T10:59:20;3.63;;;2.03;;
10586;SDS011;5341;47.606;7.576;2022-09-29T11:01:50;2.72;;;2.17;;
10586;SDS011;5341;47.606;7.576;2022-09-29T11:04:23;4.28;;;1.90;;
10586;SDS011;5341;47.606;7.576;2022-09-29T11:06:54;2.42;;;2.10;;
10586;SDS011;5341;47.606;7.576;2022-09-29T11:09:26;2.72;;;2.35;;
10586;SDS011;5341;47.606;7.576;2022-09-29T11:11:57;2.30;;;2.10;;
10586;SDS011;5341;47.606;7.576;2022-09-29T11:14:26;4.13;;;2.05;;
10586;SDS011;5341;47.606;7.576;2022-09-29T11:16:57;3.08;;;2.53;;
10586;SDS011;5341;47.606;7.576;2022-09-29T11:19:28;3.47;;;1.90;;
10586;SDS011;5341;47.606;7.576;2022-09-29T11:25:08;2.17;;;1.77;;
10586;SDS011;5341;47.606;7.576;2022-09-29T11:27:51;2.20;;;1.65;;
10586;SDS011;5341;47.606;7.576;2022-09-29T11:30:31;3.42;;;1.85;;
10586;SDS011;5341;47.606;7.576;2022-09-29T11:33:14;1.73;;;1.42;;
10586;SDS011;5341;47.606;7.576;2022-09-29T11:35:52;2.35;;;1.70;;
10586;SDS011;5341;47.606;7.576;2022-09-29T11:41:23;3.30;;;2.25;;
10586;SDS011;5341;47.606;7.576;2022-09-29T11:44:12;12.38;;;10.85;;
10586;SDS011;5341;47.606;7.576;2022-09-29T11:47:05;2.67;;;2.08;;
10586;SDS011;5341;47.606;7.576;2022-09-29T11:49:48;2.55;;;2.03;;
10586;SDS011;5341;47.606;7.576;2022-09-29T11:52:31;2.50;;;1.70;;
10586;SDS011;5341;47.606;7.576;2022-09-29T11:55:18;2.88;;;1.67;;
10586;SDS011;5341;47.606;7.576;2022-09-29T11:58:00;1.45;;;1.35;;
10586;SDS011;5341;47.606;7.576;2022-09-29T12:00:39;1.90;;;1.42;;
10586;SDS011;5341;47.606;7.576;2022-09-29T12:03:22;2.15;;;1.77;;
10586;SDS011;5341;47.606;7.576;2022-09-29T12:06:12;2.85;;;2.17;;
10586;SDS011;5341;47.606;7.576;2022-09-29T12:08:58;3.20;;;2.55;;
10586;SDS011;5341;47.606;7.576;2022-09-29T12:11:42;3.35;;;2.75;;
10586;SDS011;5341;47.606;7.576;2022-09-29T12:14:21;2.72;;;2.00;;
10586;SDS011;5341;47.606;7.576;2022-09-29T12:16:58;2.83;;;2.22;;
10586;SDS011;5341;47.606;7.576;2022-09-29T12:19:31;2.97;;;1.80;;
10586;SDS011;5341;47.606;7.576;2022-09-29T12:22:06;3.13;;;2.30;;
10586;SDS011;5341;47.606;7.576;2022-09-29T12:24:39;2.15;;;1.60;;
10586;SDS011;5341;47.606;7.576;2022-09-29T12:27:11;3.40;;;2.00;;
10586;SDS011;5341;47.606;7.576;2022-09-29T12:29:43;5.03;;;3.85;;
10586;SDS011;5341;47.606;7.576;2022-09-29T12:32:17;3.33;;;3.03;;
10586;SDS011;5341;47.606;7.576;2022-09-29T12:34:52;4.75;;;3.03;;
10586;SDS011;5341;47.606;7.576;2022-09-29T12:37:26;3.08;;;2.75;;
10586;SDS011;5341;47.606;7.576;2022-09-29T12:40:02;2.95;;;1.70;;
10586;SDS011;5341;47.606;7.576;2022-09-29T12:42:38;3.75;;;1.77;;
10586;SDS011;5341;47.606;7.576;2022-09-29T12:45:21;2.10;;;1.90;;
10586;SDS011;5341;47.606;7.576;2022-09-29T12:47:58;2.28;;;1.80;;
10586;SDS011;5341;47.606;7.576;2022-09-29T12:50:32;2.20;;;1.70;;
10586;SDS011;5341;47.606;7.576;2022-09-29T12:53:08;3.53;;;1.83;;
10586;SDS011;5341;47.606;7.576;2022-09-29T12:55:44;2.20;;;2.00;;
10586;SDS011;5341;47.606;7.576;2022-09-29T12:58:18;2.13;;;1.80;;
10586;SDS011;5341;47.606;7.576;2022-09-29T13:00:50;4.07;;;1.60;;
10586;SDS011;5341;47.606;7.576;2022-09-29T13:06:40;1.98;;;1.42;;
10586;SDS011;5341;47.606;7.576;2022-09-29T13:09:23;2.05;;;1.48;;
10586;SDS011;5341;47.606;7.576;2022-09-29T13:12:11;2.05;;;1.50;;
10586;SDS011;5341;47.606;7.576;2022-09-29T13:15:12;3.40;;;1.50;;
10586;SDS011;5341;47.606;7.576;2022-09-29T13:17:58;2.35;;;1.98;;
10586;SDS011;5341;47.606;7.576;2022-09-29T13:20:55;2.88;;;2.20;;
10586;SDS011;5341;47.606;7.576;2022-09-29T13:23:38;2.85;;;1.98;;
10586;SDS011;5341;47.606;7.576;2022-09-29T13:26:29;3.08;;;2.00;;
10586;SDS011;5341;47.606;7.576;2022-09-29T13:29:20;3.78;;;2.17;;
10586;SDS011;5341;47.606;7.576;2022-09-29T13:31:53;2.22;;;1.77;;
10586;SDS011;5341;47.606;7.576;2022-09-29T13:34:27;2.08;;;1.65;;
10586;SDS011;5341;47.606;7.576;2022-09-29T13:37:06;3.05;;;2.38;;
10586;SDS011;5341;47.606;7.576;2022-09-29T13:39:40;3.50;;;3.20;;
10586;SDS011;5341;47.606;7.576;2022-09-29T13:42:24;5.88;;;2.00;;
10586;SDS011;5341;47.606;7.576;2022-09-29T14:02:58;2.40;;;1.40;;
10586;SDS011;5341;47.606;7.576;2022-09-29T14:05:46;2.38;;;1.50;;
10586;SDS011;5341;47.606;7.576;2022-09-29T14:08:27;2.97;;;1.80;;
10586;SDS011;5341;47.606;7.576;2022-09-29T14:11:03;2.78;;;1.85;;
10586;SDS011;5341;47.606;7.576;2022-09-29T14:13:40;1.27;;;1.17;;
10586;SDS011;5341;47.606;7.576;2022-09-29T14:16:24;2.40;;;1.45;;
10586;SDS011;5341;47.606;7.576;2022-09-29T14:19:03;1.90;;;1.70;;
10586;SDS011;5341;47.606;7.576;2022-09-29T14:21:46;1.58;;;1.45;;
10586;SDS011;5341;47.606;7.576;2022-09-29T14:27:18;1.90;;;1.50;;
10586;SDS011;5341;47.606;7.576;2022-09-29T14:29:54;1.90;;;1.40;;
10586;SDS011;5341;47.606;7.576;2022-09-29T14:32:31;2.00;;;1.50;;
10586;SDS011;5341;47.606;7.576;2022-09-29T14:35:26;1.85;;;1.52;;
10586;SDS011;5341;47.606;7.576;2022-09-29T14:37:57;1.70;;;1.50;;
10586;SDS011;5341;47.606;7.576;2022-09-29T14:40:28;1.90;;;1.52;;
10586;SDS011;5341;47.606;7.576;2022-09-29T14:43:03;2.42;;;1.60;;
10586;SDS011;5341;47.606;7.576;2022-09-29T14:48:51;2.95;;;1.42;;
10586;SDS011;5341;47.606;7.576;2022-09-29T14:51:45;2.42;;;1.42;;
10586;SDS011;5341;47.606;7.576;2022-09-29T14:54:25;1.83;;;1.52;;
10586;SDS011;5341;47.606;7.576;2022-09-29T14:57:08;1.60;;;1.50;;
10586;SDS011;5341;47.606;7.576;2022-09-29T14:59:52;2.30;;;1.13;;
10586;SDS011;5341;47.606;7.576;2022-09-29T15:02:29;1.83;;;1.40;;
10586;SDS011;5341;47.606;7.576;2022-09-29T15:05:00;1.92;;;1.35;;
10586;SDS011;5341;47.606;7.576;2022-09-29T15:07:40;1.90;;;1.55;;
10586;SDS011;5341;47.606;7.576;2022-09-29T15:15:45;1.92;;;1.50;;
10586;SDS011;5341;47.606;7.576;2022-09-29T15:18:22;3.58;;;2.63;;
10586;SDS011;5341;47.606;7.576;2022-09-29T15:21:11;4.07;;;3.67;;
10586;SDS011;5341;47.606;7.576;2022-09-29T15:23:53;4.15;;;3.63;;
10586;SDS011;5341;47.606;7.576;2022-09-29T15:26:43;8.13;;;5.70;;
10586;SDS011;5341;47.606;7.576;2022-09-29T15:29:12;2.80;;;2.40;;
10586;SDS011;5341;47.606;7.576;2022-09-29T15:31:44;4.30;;;3.88;;
10586;SDS011;5341;47.606;7.576;2022-09-29T15:34:16;9.13;;;7.88;;
10586;SDS011;5341;47.606;7.576;2022-09-29T15:36:46;7.53;;;6.47;;
10586;SDS011;5341;47.606;7.576;2022-09-29T15:39:39;10.35;;;7.30;;
10586;SDS011;5341;47.606;7.576;2022-09-29T15:42:11;7.72;;;5.93;;
10586;SDS011;5341;47.606;7.576;2022-09-29T15:44:44;5.70;;;4.35;;
10586;SDS011;5341;47.606;7.576;2022-09-29T15:47:20;6.68;;;4.72;;
10586;SDS011;5341;47.606;7.576;2022-09-29T15:49:52;5.13;;;4.60;;
10586;SDS011;5341;47.606;7.576;2022-09-29T15:52:30;5.18;;;4.20;;
10586;SDS011;5341;47.606;7.576;2022-09-29T15:55:03;4.50;;;3.55;;
10586;SDS011;5341;47.606;7.576;2022-09-29T15:57:41;6.38;;;4.90;;
10586;SDS011;5341;47.606;7.576;2022-09-29T16:03:11;4.53;;;3.90;;
10586;SDS011;5341;47.606;7.576;2022-09-29T16:05:50;5.25;;;3.67;;
10586;SDS011;5341;47.606;7.576;2022-09-29T16:08:30;5.10;;;3.75;;
10586;SDS011;5341;47.606;7.576;2022-09-29T16:11:02;4.45;;;4.05;;
10586;SDS011;5341;47.606;7.576;2022-09-29T16:13:34;4.57;;;3.92;;
10586;SDS011;5341;47.606;7.576;2022-09-29T16:16:05;7.07;;;3.97;;
10586;SDS011;5341;47.606;7.576;2022-09-29T16:18:37;3.83;;;3.38;;
10586;SDS011;5341;47.606;7.576;2022-09-29T16:21:09;5.30;;;3.70;;
10586;SDS011;5341;47.606;7.576;2022-09-29T16:23:40;4.15;;;3.70;;
10586;SDS011;5341;47.606;7.576;2022-09-29T16:26:16;3.95;;;3.33;;